Flight Track Log - Related Links

Times and Time Zones

All times are in EDT time to prevent confusion due to time zone crossing. See the EJA831 flight status page for this flight to view local times or setup timezone preferences in your user account.

Time Position Orientation Groundspeed Altitude Reporting Facility
EDT Latitude Longitude Course Direction KTS MPH feet Rate Location/Type
Sun 02:41:16 PM 38.7000 -121.6000 38° Northeast 158 182 1,200  Level Northern TRACON
Sun 02:42:10 PM 38.7333 -121.5667 38° Northeast 244 281 5,100 4,278 Climbing Northern TRACON
Sun 02:43:11 PM 38.7000 -121.5000 123° Southeast 272 313 9,400 3,304 Climbing Northern TRACON
Sun 02:45:37 PM 38.5767 -121.2908 127° Southeast 306 352 16,500 2,107 Climbing Oakland Center
Sun 02:51:38 PM 38.1740 -120.6280 127° Southeast 100 115 27,200 1,691 Climbing FlightAware
Sun 02:52:18 PM 38.1090 -120.5630 142° Southeast 446 513 27,800 1,050 Climbing FlightAware
Sun 02:52:58 PM 38.0480 -120.5040 143° Southeast 458 527 28,600 960 Climbing FlightAware
Sun 02:53:33 PM 37.9830 -120.4400 142° Southeast 465 535 29,000 343 Climbing FlightAware
Sun 02:54:08 PM 37.9200 -120.3780 142° Southeast 482 555 29,000  Level FlightAware
Sun 02:54:43 PM 37.8570 -120.3180 143° Southeast 500 575 29,000  Level FlightAware
Sun 02:55:18 PM 37.7920 -120.2540 142° Southeast 503 579 29,000  Level FlightAware
Sun 02:55:53 PM 37.7290 -120.1930 143° Southeast 501 577 29,000  Level FlightAware
Sun 02:56:28 PM 37.6640 -120.1300 142° Southeast 514 592 29,000  Level FlightAware
Sun 02:57:03 PM 37.6010 -120.0700 143° Southeast 511 588 29,000  Level FlightAware
Sun 02:57:38 PM 37.5340 -120.0050 142° Southeast 511 588 29,000  Level FlightAware
Sun 02:58:08 PM 37.4740 -119.9470 142° Southeast 511 588 29,000  Level FlightAware
Sun 02:59:06 PM 37.3650 -119.8670 150° Southeast 512 589 29,000  Level FlightAware
Sun 02:59:43 PM 37.3000 -119.8220 151° Southeast 512 589 29,000  Level FlightAware
Sun 03:00:19 PM 37.2360 -119.7780 151° Southeast 512 589 29,000  Level FlightAware
Sun 03:00:55 PM 37.1730 -119.7340 151° Southeast 512 589 29,000  Level FlightAware
Sun 03:01:31 PM 37.1090 -119.6900 151° Southeast 512 589 29,000  Level FlightAware
Sun 03:02:07 PM 37.0460 -119.6460 151° Southeast 512 589 29,000  Level FlightAware
Sun 03:03:07 PM 36.7656 -119.7619 151° Southeast 500 575 29,000  Level Oakland Center
Sun 03:04:08 PM 36.6278 -119.7361 171° South 501 577 29,000  Level Oakland Center
Sun 03:05:10 PM 36.4903 -119.7094 171° South 499 574 29,000  Level Oakland Center
Sun 03:06:12 PM 36.3525 -119.6836 171° South 499 574 29,000  Level Oakland Center
Sun 03:07:14 PM 36.2150 -119.6583 172° South 499 574 29,000  Level Oakland Center
Sun 03:08:15 PM 36.0772 -119.6319 171° South 499 574 29,000  Level Oakland Center
Sun 03:09:17 PM 35.9403 -119.6156 174° South 493 567 29,000  Level Oakland Center
Sun 03:10:19 PM 35.7767 -119.6222 182° South 488 562 29,000 -146 Level Oakland Center
Sun 03:11:20 PM 35.6403 -119.6036 174° South 499 574 28,700 -732 Descending Oakland Center
Sun 03:12:22 PM 35.5064 -119.5547 163° South 499 574 27,500 -1,500 Descending Oakland Center
Sun 03:13:24 PM 35.3758 -119.5081 164° South 491 565 25,600 -1,548 Descending Oakland Center
Sun 03:14:26 PM 35.2511 -119.4614 163° South 475 547 24,300 -780 Descending Oakland Center
Sun 03:15:27 PM 35.1258 -119.4181 164° South 467 537 24,000 -264 Descending Oakland Center
Sun 03:15:57 PM 35.0533 -119.3925 164° South 461 531 23,900 -1,419 Descending Los Center
Sun 03:17:00 PM 34.9336 -119.3500 164° South 452 520 21,800 -1,968 Descending Los Center
Sun 03:18:02 PM 34.8183 -119.3083 163° South 439 505 19,800 -1,984 Descending Los Center
Sun 03:19:04 PM 34.7047 -119.2692 164° South 428 493 17,700 -1,935 Descending Los Center
Sun 03:20:06 PM 34.5961 -119.2306 164° South 422 486 15,800 -2,239 Descending Los Center
Sun 03:20:11 PM 34.5644 -119.2183 162° South 410 472 15,200 -3,000 Descending Los Center
Sun 03:21:08 PM 34.4675 -119.1858 165° South 404 465 12,700 -2,700 Descending Los Center
Sun 03:21:11 PM 34.4619 -119.1836 162° South 398 458 12,500 -2,516 Descending Los Center
Sun 03:22:10 PM 34.3733 -119.1536 164° South 359 413 10,100 -2,557 Descending Los Center
Sun 03:22:12 PM 34.3658 -119.1494 155° Southeast 323 372 9,900 -2,000 Descending Los Center
Sun 03:23:13 PM 34.2967 -119.1233 163° South 297 342 8,000 -2,231 Descending Los Center
Sun 03:24:13 PM 34.2156 -119.0964 165° South 263 303 5,400 -2,226 Descending Los Center
Sun 03:24:15 PM 34.2253 -119.0969 357° North 274 315 5,700 -1,855 Climbing Los Center
Sun 03:25:08 PM 34.1756 -119.0625 150° Southeast 186 214 3,700 -1,935 Descending Los Center
Sun 03:25:17 PM 34.1750 -119.0636 239° Southwest 238 274 3,700 -2,091 Level Los Center
Sun 03:26:14 PM 34.2042 -119.0353 39° Northeast 122 140 1,400 -2,421 Descending Los Center

Login

Don't have an account? Register now (free) for customized features, flight alerts, and more!